Time;durP1;ratioP1;P1;durP2;ratioP2;P2;SDS_P1;SDS_P2;PMS_P1;PMS_P2;Temp;Humidity;BMP_temperature;BMP_pressure;BME280_temperature;BME280_humidity;BME280_pressure;Samples;Min_cycle;Max_cycle;Signal;HPM_P1;HPM_P2
2023/02/28 00:00:11;;;;;;;75.77;22.30;;;-1.90;99.90;;;;;;5050229;28;20223;-85
2023/02/28 00:02:38;;;;;;;97.07;25.93;;;-1.90;99.90;;;;;;5046394;28;20219;-85
2023/02/28 00:05:05;;;;;;;81.43;25.73;;;-1.90;99.90;;;;;;5052506;28;20204;-86
2023/02/28 00:07:31;;;;;;;90.43;24.67;;;-1.90;99.90;;;;;;5052888;28;20177;-85
2023/02/28 00:09:57;;;;;;;91.07;26.20;;;-2.00;99.90;;;;;;5052564;28;20616;-85
2023/02/28 00:12:23;;;;;;;87.23;25.17;;;-2.00;99.90;;;;;;5052843;28;20724;-85
2023/02/28 00:14:50;;;;;;;61.30;19.90;;;-2.00;99.90;;;;;;5052605;28;20182;-85
2023/02/28 00:17:20;;;;;;;65.57;15.47;;;-2.00;99.90;;;;;;5035063;28;20207;-84
2023/02/28 00:19:51;;;;;;;36.57;12.37;;;-1.60;99.90;;;;;;5035465;28;20179;-86
2023/02/28 00:22:18;;;;;;;25.53;9.30;;;-2.00;99.90;;;;;;5052914;28;20207;-84
2023/02/28 00:24:44;;;;;;;41.90;11.93;;;-2.10;99.90;;;;;;5052909;28;20174;-85
2023/02/28 00:27:10;;;;;;;32.87;14.53;;;-1.40;99.90;;;;;;5052607;28;20683;-85
2023/02/28 00:29:36;;;;;;;25.10;10.10;;;-2.20;99.90;;;;;;5038724;28;20183;-85
2023/02/28 00:32:02;;;;;;;33.57;10.67;;;-2.20;99.90;;;;;;5038707;28;20229;-85
2023/02/28 00:34:28;;;;;;;38.17;11.93;;;-2.20;99.90;;;;;;5038889;28;20230;-85
2023/02/28 00:36:54;;;;;;;34.53;11.37;;;-2.20;99.90;;;;;;5056384;28;20232;-86
2023/02/28 00:39:19;;;;;;;38.03;12.07;;;-2.20;99.90;;;;;;5042939;28;20267;-85
2023/02/28 00:41:45;;;;;;;32.77;12.77;;;-2.30;99.90;;;;;;5060920;28;20186;-85
2023/02/28 00:44:11;;;;;;;43.60;14.87;;;-2.30;99.90;;;;;;5038436;28;20211;-86
2023/02/28 00:46:36;;;;;;;49.30;12.70;;;-2.30;99.90;;;;;;5022074;28;20300;-85
2023/02/28 00:49:02;;;;;;;30.63;10.03;;;-2.40;99.90;;;;;;5056400;28;20179;-85
2023/02/28 00:51:28;;;;;;;45.60;10.53;;;-2.40;99.90;;;;;;5056396;28;20236;-85
2023/02/28 00:53:54;;;;;;;39.70;12.13;;;-2.40;99.90;;;;;;5055874;28;20195;-84
2023/02/28 00:56:20;;;;;;;31.13;12.47;;;-2.40;99.90;;;;;;5038334;28;20523;-86
2023/02/28 00:58:45;;;;;;;41.90;11.50;;;-1.00;99.90;;;;;;5038063;28;20588;-85
2023/02/28 01:01:11;;;;;;;29.37;12.60;;;-1.20;99.90;;;;;;5055797;28;20230;-87
2023/02/28 01:03:38;;;;;;;26.83;9.13;;;-2.20;99.90;;;;;;5055994;28;20261;-85
2023/02/28 01:06:04;;;;;;;22.07;9.40;;;-2.60;99.90;;;;;;5055615;28;20642;-84
2023/02/28 01:08:30;;;;;;;13.83;8.47;;;-2.60;99.90;;;;;;5055847;28;20177;-85
2023/02/28 01:10:55;;;;;;;13.33;8.43;;;-1.80;99.90;;;;;;5037618;28;20186;-85
2023/02/28 01:13:22;;;;;;;23.23;7.73;;;-2.60;99.90;;;;;;5055645;28;20191;-85
2023/02/28 01:15:55;;;;;;;37.77;11.93;;;-2.70;99.90;;;;;;5038120;28;20520;-85
2023/02/28 01:18:21;;;;;;;12.90;6.33;;;-1.90;99.90;;;;;;5055668;28;20236;-84
2023/02/28 01:20:48;;;;;;;42.80;8.60;;;-2.20;99.90;;;;;;5037725;28;20183;-85
2023/02/28 01:23:13;;;;;;;15.50;9.90;;;-2.80;99.90;;;;;;5037608;28;20775;-84
2023/02/28 01:25:39;;;;;;;46.53;12.77;;;-2.70;99.90;;;;;;5037680;28;20180;-85
2023/02/28 01:28:05;;;;;;;25.50;10.80;;;-2.70;99.90;;;;;;5055104;28;20521;-85
2023/02/28 01:30:31;;;;;;;41.33;11.37;;;-2.30;99.90;;;;;;5055287;28;20206;-84
2023/02/28 01:32:58;;;;;;;23.67;10.03;;;-2.50;99.90;;;;;;5037468;28;20218;-85
2023/02/28 01:35:23;;;;;;;22.47;10.07;;;-1.90;99.90;;;;;;5055339;28;20177;-84
2023/02/28 01:37:49;;;;;;;39.20;11.57;;;-2.80;99.90;;;;;;5037601;28;20194;-85
2023/02/28 01:40:15;;;;;;;25.50;11.03;;;-2.90;99.90;;;;;;5037536;28;20201;-85
2023/02/28 01:42:41;;;;;;;26.40;11.20;;;-2.90;99.90;;;;;;5037700;28;20238;-85
2023/02/28 01:45:22;;;;;;;28.73;9.53;;;-3.00;99.90;;;;;;5054920;28;20175;-85
2023/02/28 01:47:51;;;;;;;24.13;9.33;;;-3.00;99.90;;;;;;5037401;28;20185;-84
2023/02/28 01:50:22;;;;;;;22.53;10.20;;;-3.00;99.90;;;;;;5054861;28;20653;-84
2023/02/28 01:52:49;;;;;;;44.47;11.97;;;-1.80;99.90;;;;;;5055005;28;20208;-84
2023/02/28 01:55:18;;;;;;;34.30;10.50;;;-3.10;99.90;;;;;;5054722;28;20239;-84
2023/02/28 01:57:50;;;;;;;15.10;10.07;;;-2.50;99.90;;;;;;5037300;28;20176;-84
2023/02/28 02:00:20;;;;;;;42.63;12.30;;;-3.10;99.90;;;;;;5054814;28;20227;-85
2023/02/28 02:02:49;;;;;;;22.00;10.03;;;-3.10;99.90;;;;;;5037180;28;20180;-84
2023/02/28 02:05:18;;;;;;;21.20;9.73;;;-3.10;99.90;;;;;;5036717;28;20179;-85
2023/02/28 02:07:48;;;;;;;28.47;9.97;;;-3.20;99.90;;;;;;5054996;28;20172;-85
2023/02/28 02:10:15;;;;;;;10.57;6.63;;;-3.20;99.90;;;;;;5054845;28;20171;-84
2023/02/28 02:13:12;;;;;;;21.10;9.47;;;-1.90;99.90;;;;;;5054652;28;20203;-84
2023/02/28 02:15:46;;;;;;;15.97;8.10;;;-3.20;99.90;;;;;;5054708;28;20181;-85
2023/02/28 02:18:19;;;;;;;31.13;10.80;;;-3.20;99.90;;;;;;5036644;28;20173;-84
2023/02/28 02:20:53;;;;;;;11.97;8.13;;;-3.30;99.90;;;;;;5054648;28;20213;-84
2023/02/28 02:23:57;;;;;;;20.37;8.03;;;-3.30;99.90;;;;;;5054402;28;20169;-85
2023/02/28 02:26:37;;;;;;;19.97;10.83;;;-3.30;99.90;;;;;;5036323;28;20182;-84
2023/02/28 02:29:25;;;;;;;18.67;8.13;;;-3.30;99.90;;;;;;5036761;28;20212;-88
2023/02/28 02:32:36;;;;;;;25.17;9.97;;;-3.30;99.90;;;;;;5036421;28;20223;-85
2023/02/28 02:35:05;;;;;;;25.80;12.53;;;-3.20;99.90;;;;;;5036644;28;20181;-84
2023/02/28 02:37:40;;;;;;;27.37;7.77;;;-3.30;99.90;;;;;;5054392;28;20175;-85
2023/02/28 02:40:08;;;;;;;28.87;10.80;;;-2.70;99.90;;;;;;5054065;28;20173;-85
2023/02/28 02:42:55;;;;;;;34.90;10.10;;;-1.90;99.90;;;;;;5036258;28;20320;-84
2023/02/28 02:45:46;;;;;;;14.00;8.90;;;-3.30;99.90;;;;;;5054062;28;20643;-84
2023/02/28 02:48:15;;;;;;;23.87;10.33;;;-3.40;99.90;;;;;;5051074;28;20183;-84
2023/02/28 02:50:51;;;;;;;42.70;11.87;;;-2.40;99.90;;;;;;5053309;28;20185;-84
2023/02/28 02:53:21;;;;;;;34.03;9.30;;;-3.40;99.90;;;;;;5053807;28;20174;-84
2023/02/28 02:55:54;;;;;;;20.50;8.70;;;-3.30;99.90;;;;;;5053695;28;20512;-84
2023/02/28 02:58:23;;;;;;;16.67;7.07;;;-3.40;99.90;;;;;;5053617;28;20173;-84
2023/02/28 03:00:53;;;;;;;23.20;9.77;;;-3.30;99.90;;;;;;5053454;28;20361;-84
2023/02/28 03:03:28;;;;;;;31.80;10.87;;;-3.40;99.90;;;;;;5035599;28;20177;-84
2023/02/28 03:05:59;;;;;;;31.37;12.87;;;-3.40;99.90;;;;;;5035738;28;20184;-84
2023/02/28 03:08:27;;;;;;;11.87;6.97;;;-2.30;99.90;;;;;;5053511;28;20179;-84
2023/02/28 03:10:58;;;;;;;16.80;6.83;;;-3.40;99.90;;;;;;5053551;28;20187;-84
2023/02/28 03:13:33;;;;;;;15.20;7.77;;;-3.40;99.90;;;;;;5053476;28;20241;-84
2023/02/28 03:16:19;;;;;;;10.47;7.43;;;-3.50;99.90;;;;;;5053658;28;20174;-84
2023/02/28 03:18:57;;;;;;;16.80;9.77;;;-2.90;99.90;;;;;;5031839;28;20201;-84
2023/02/28 03:21:23;;;;;;;10.70;5.47;;;-3.50;99.90;;;;;;5053145;28;20179;-84
2023/02/28 03:24:07;;;;;;;24.80;10.43;;;-3.50;99.90;;;;;;5053337;28;20186;-85
2023/02/28 03:26:36;;;;;;;20.67;9.60;;;-3.60;99.90;;;;;;5053453;28;20171;-84
2023/02/28 03:29:15;;;;;;;28.40;11.60;;;-3.40;99.90;;;;;;5053091;28;20175;-85
2023/02/28 03:32:14;;;;;;;35.40;11.53;;;-3.50;99.90;;;;;;5053411;28;20204;-85
2023/02/28 03:35:00;;;;;;;19.67;9.83;;;-3.50;99.90;;;;;;5053110;28;20201;-85
2023/02/28 03:37:29;;;;;;;15.57;9.17;;;-3.50;99.90;;;;;;5053659;28;20166;-85
2023/02/28 03:40:11;;;;;;;16.10;9.43;;;-3.50;99.90;;;;;;5035625;28;20189;-84
2023/02/28 03:42:40;;;;;;;20.93;10.53;;;-3.50;99.90;;;;;;5053158;28;20178;-85
2023/02/28 03:45:13;;;;;;;23.07;8.80;;;-3.50;99.90;;;;;;5053219;28;20176;-85
2023/02/28 03:47:38;;;;;;;33.67;11.90;;;-3.50;99.90;;;;;;5053182;28;20227;-85
2023/02/28 03:50:23;;;;;;;16.37;8.33;;;-3.50;99.90;;;;;;5035578;28;20617;-85
2023/02/28 03:52:55;;;;;;;13.93;7.40;;;-3.50;99.90;;;;;;5053468;28;20297;-85
2023/02/28 03:55:21;;;;;;;24.70;6.60;;;-2.80;99.90;;;;;;5053070;28;20179;-85
2023/02/28 03:58:13;;;;;;;15.67;7.97;;;-3.40;99.90;;;;;;5018664;28;20317;-84
2023/02/28 04:00:46;;;;;;;14.10;7.90;;;-3.40;99.90;;;;;;5052676;28;20219;-84
2023/02/28 04:03:11;;;;;;;7.57;5.97;;;-2.50;99.90;;;;;;5054683;28;20164;-84
2023/02/28 04:05:53;;;;;;;19.03;7.93;;;-3.40;99.90;;;;;;5056950;28;20620;-84
2023/02/28 04:08:19;;;;;;;14.83;8.33;;;-3.40;99.90;;;;;;5057980;28;20179;-85
2023/02/28 04:10:53;;;;;;;14.93;7.83;;;-3.40;99.90;;;;;;5058453;28;20190;-83
2023/02/28 04:13:18;;;;;;;10.20;6.50;;;-2.30;99.90;;;;;;5067041;28;20210;-83
2023/02/28 04:15:44;;;;;;;18.20;8.13;;;-3.30;99.90;;;;;;5057919;28;20178;-84
2023/02/28 04:18:10;;;;;;;19.47;7.93;;;-2.10;99.90;;;;;;5056907;28;20658;-85
2023/02/28 04:20:36;;;;;;;15.60;9.60;;;-2.40;99.90;;;;;;5022168;28;20176;-85
2023/02/28 04:23:01;;;;;;;21.00;8.57;;;-2.90;99.90;;;;;;5039033;28;20273;-84
2023/02/28 04:25:27;;;;;;;26.00;9.00;;;-3.20;99.90;;;;;;5038630;28;20259;-84
2023/02/28 04:27:52;;;;;;;20.50;9.60;;;-3.10;99.90;;;;;;5056932;28;20186;-83
2023/02/28 04:30:18;;;;;;;14.57;9.20;;;-3.30;99.90;;;;;;5038958;28;20243;-84
2023/02/28 04:32:44;;;;;;;28.93;10.87;;;-2.80;99.90;;;;;;5056231;28;20257;-84
2023/02/28 04:35:09;;;;;;;35.03;10.13;;;-2.00;99.90;;;;;;5038279;28;20539;-84
2023/02/28 04:37:36;;;;;;;23.70;11.70;;;-3.30;99.90;;;;;;5021443;28;20186;-85
2023/02/28 04:40:03;;;;;;;34.63;16.23;;;-2.90;99.90;;;;;;5038311;28;20178;-85
2023/02/28 04:42:35;;;;;;;26.43;11.73;;;-3.20;99.90;;;;;;5056211;28;20666;-84
2023/02/28 04:45:04;;;;;;;23.20;11.43;;;-3.30;99.90;;;;;;5038339;28;20238;-85
2023/02/28 04:47:29;;;;;;;21.67;9.43;;;-3.30;99.90;;;;;;5034602;28;20651;-85
2023/02/28 04:49:55;;;;;;;36.27;12.57;;;-2.00;99.90;;;;;;5046044;28;20238;-83
2023/02/28 04:52:22;;;;;;;25.23;12.73;;;-3.30;99.90;;;;;;5041753;28;20218;-84
2023/02/28 04:54:48;;;;;;;48.13;11.77;;;-3.40;99.90;;;;;;5018255;28;20191;-83
2023/02/28 04:57:14;;;;;;;44.83;19.13;;;-3.40;99.90;;;;;;5018450;28;20210;-84
2023/02/28 04:59:40;;;;;;;36.80;13.60;;;-3.10;99.90;;;;;;5001415;28;20182;-84
2023/02/28 05:02:06;;;;;;;39.50;13.97;;;-3.30;99.90;;;;;;5035961;28;20658;-84
2023/02/28 05:04:35;;;;;;;27.50;13.00;;;-3.40;99.90;;;;;;5001392;28;20184;-85
2023/02/28 05:07:02;;;;;;;34.77;12.17;;;-3.40;99.90;;;;;;5017887;28;20246;-84
2023/02/28 05:09:29;;;;;;;51.53;14.07;;;-3.40;99.90;;;;;;5035688;28;20175;-85
2023/02/28 05:11:55;;;;;;;32.33;11.77;;;-2.80;99.90;;;;;;5018142;28;20211;-83
2023/02/28 05:14:21;;;;;;;34.93;11.13;;;-3.40;99.90;;;;;;5036097;28;20546;-84
2023/02/28 05:16:47;;;;;;;26.63;13.20;;;-2.60;99.90;;;;;;5001215;28;20213;-84
2023/02/28 05:19:12;;;;;;;20.03;11.27;;;-3.50;99.90;;;;;;5017348;28;20191;-83
2023/02/28 05:21:50;;;;;;;11.20;7.70;;;-3.40;99.90;;;;;;5000971;28;20206;-84
2023/02/28 05:24:22;;;;;;;28.77;10.03;;;-3.50;99.90;;;;;;5050408;28;20220;-85
2023/02/28 05:26:49;;;;;;;20.87;11.87;;;-3.40;99.90;;;;;;5028458;28;20647;-84
2023/02/28 05:29:15;;;;;;;25.20;8.87;;;-2.10;99.90;;;;;;5033197;28;20190;-84
2023/02/28 05:31:41;;;;;;;17.20;10.67;;;-3.50;99.90;;;;;;5020624;28;20252;-84
2023/02/28 05:34:06;;;;;;;20.13;9.63;;;-3.50;99.90;;;;;;5039920;28;20273;-84
2023/02/28 05:36:32;;;;;;;27.60;9.33;;;-3.40;99.90;;;;;;5000163;28;20274;-83
2023/02/28 05:38:58;;;;;;;14.83;7.00;;;-3.50;99.90;;;;;;5031598;28;20649;-84
2023/02/28 05:41:24;;;;;;;15.60;8.67;;;-3.10;99.90;;;;;;5012266;28;20190;-85
2023/02/28 05:43:49;;;;;;;27.97;9.90;;;-3.40;99.90;;;;;;5032399;28;20216;-85
2023/02/28 05:46:16;;;;;;;12.97;9.00;;;-2.80;99.90;;;;;;4998124;28;20273;-84
2023/02/28 05:48:45;;;;;;;21.83;8.13;;;-3.40;99.90;;;;;;5031759;28;20184;-84
2023/02/28 05:51:10;;;;;;;16.73;9.10;;;-3.40;99.90;;;;;;5011459;28;20612;-84
2023/02/28 05:53:36;;;;;;;17.63;10.80;;;-3.40;99.90;;;;;;5021196;28;20202;-85
2023/02/28 05:56:03;;;;;;;29.57;9.87;;;-3.30;99.90;;;;;;5034995;28;20731;-84
2023/02/28 05:58:30;;;;;;;22.70;13.00;;;-3.30;99.90;;;;;;5012582;28;20271;-85
2023/02/28 06:01:00;;;;;;;36.83;14.83;;;-3.30;99.90;;;;;;5029068;28;20280;-85
2023/02/28 06:03:26;;;;;;;21.57;11.57;;;-3.20;99.90;;;;;;5011159;28;20588;-84
2023/02/28 06:05:52;;;;;;;29.97;12.20;;;-3.10;99.90;;;;;;5029824;28;20182;-84
2023/02/28 06:08:18;;;;;;;45.13;10.47;;;-2.90;99.90;;;;;;5027544;28;20227;-85
2023/02/28 06:10:44;;;;;;;14.43;8.00;;;-3.00;99.90;;;;;;5017420;28;20339;-83
2023/02/28 06:13:12;;;;;;;8.67;6.37;;;-2.00;99.90;;;;;;5000958;28;20220;-85
2023/02/28 06:15:38;;;;;;;11.33;5.40;;;-2.80;99.90;;;;;;4994624;28;20196;-83
2023/02/28 06:18:04;;;;;;;13.83;6.90;;;-2.70;99.90;;;;;;5018916;28;20181;-83
2023/02/28 06:20:29;;;;;;;20.07;6.47;;;-2.60;99.90;;;;;;5014307;28;20183;-85
2023/02/28 06:22:58;;;;;;;5.17;3.90;;;-2.50;99.90;;;;;;5016980;28;20267;-82
2023/02/28 06:25:24;;;;;;;8.77;5.13;;;-2.40;99.90;;;;;;5018695;28;20188;-84
2023/02/28 06:27:50;;;;;;;12.50;6.03;;;-2.30;99.90;;;;;;5021580;28;20280;-87
2023/02/28 06:30:16;;;;;;;9.50;5.17;;;-2.20;99.90;;;;;;4986450;28;20284;-86
2023/02/28 06:32:42;;;;;;;5.40;4.13;;;-2.10;99.90;;;;;;5014685;28;20213;-86
2023/02/28 06:35:08;;;;;;;3.47;3.10;;;-1.90;99.90;;;;;;5003638;28;20249;-85
2023/02/28 06:37:33;;;;;;;3.40;3.10;;;-2.00;99.90;;;;;;5021670;28;20249;-85
2023/02/28 06:39:59;;;;;;;6.83;4.00;;;-1.90;99.90;;;;;;5011920;28;20201;-86
2023/02/28 06:42:28;;;;;;;15.70;4.37;;;-1.90;99.90;;;;;;4991574;28;20197;-86
2023/02/28 06:44:57;;;;;;;7.43;5.47;;;-1.80;99.90;;;;;;5020630;28;20206;-86
2023/02/28 06:47:23;;;;;;;5.60;3.63;;;-1.70;99.90;;;;;;5006406;28;20204;-86
2023/02/28 06:49:49;;;;;;;10.83;4.47;;;-1.70;99.90;;;;;;4986312;28;20192;-85
2023/02/28 06:52:15;;;;;;;4.50;4.13;;;-1.70;99.90;;;;;;5021555;28;20420;-85
2023/02/28 06:54:41;;;;;;;12.40;5.57;;;-1.60;99.90;;;;;;5027288;28;20184;-87
2023/02/28 06:57:07;;;;;;;10.83;4.63;;;-1.50;99.90;;;;;;5016213;28;20250;-85
2023/02/28 06:59:35;;;;;;;3.23;2.93;;;-1.40;99.90;;;;;;5000548;28;20190;-87
2023/02/28 07:02:01;;;;;;;3.07;2.77;;;-1.50;99.90;;;;;;5003802;28;20242;-86
2023/02/28 07:04:27;;;;;;;4.33;2.57;;;-1.40;99.90;;;;;;5029143;28;20188;-85
2023/02/28 07:06:55;;;;;;;4.10;1.67;;;-1.40;99.90;;;;;;5015448;28;20192;-84
2023/02/28 07:09:21;;;;;;;21.60;5.50;;;-0.70;99.90;;;;;;5007902;28;20255;-86
2023/02/28 07:11:47;;;;;;;13.43;5.03;;;-1.30;99.90;;;;;;4989154;28;20696;-87
2023/02/28 07:14:12;;;;;;;8.67;4.07;;;-1.20;99.90;;;;;;4984481;28;20684;-86
2023/02/28 07:16:39;;;;;;;5.17;4.33;;;-1.20;99.90;;;;;;5000766;28;20206;-84
2023/02/28 07:19:05;;;;;;;8.33;3.90;;;-1.20;99.90;;;;;;4989581;28;20195;-87
2023/02/28 07:21:31;;;;;;;10.17;4.97;;;-1.10;99.90;;;;;;5019231;28;20247;-85
2023/02/28 07:23:57;;;;;;;5.47;4.13;;;-1.10;99.90;;;;;;5019499;28;20211;-86
2023/02/28 07:26:23;;;;;;;6.10;3.33;;;-1.00;99.90;;;;;;5005821;28;20261;-84
2023/02/28 07:28:49;;;;;;;5.00;2.87;;;-0.90;99.90;;;;;;5008205;28;20266;-86
2023/02/28 07:31:15;;;;;;;6.13;3.40;;;-1.00;99.90;;;;;;5007116;28;20188;-84
2023/02/28 07:33:41;;;;;;;5.17;3.50;;;-0.90;99.90;;;;;;5024103;28;20535;-84
2023/02/28 07:36:20;;;;;;;6.30;4.03;;;-0.80;99.90;;;;;;5026283;28;20199;-83
2023/02/28 07:38:49;;;;;;;9.67;3.37;;;-0.80;99.90;;;;;;5020591;28;20168;-87
2023/02/28 07:41:17;;;;;;;2.43;2.23;;;-0.70;99.90;;;;;;5009669;28;20580;-85
2023/02/28 07:43:42;;;;;;;4.87;3.10;;;-0.60;99.90;;;;;;5027537;28;20626;-84
2023/02/28 07:46:10;;;;;;;11.60;2.47;;;-0.60;99.90;;;;;;5019210;28;20241;-84
2023/02/28 07:48:36;;;;;;;4.53;3.37;;;-0.50;99.90;;;;;;5022660;28;20187;-84
2023/02/28 07:51:02;;;;;;;9.23;4.07;;;-0.50;99.90;;;;;;4996117;28;20266;-85
2023/02/28 07:53:29;;;;;;;6.43;2.83;;;-0.40;99.90;;;;;;4979057;28;20599;-85
2023/02/28 07:55:56;;;;;;;6.50;3.03;;;-0.30;99.90;;;;;;5014640;28;20185;-84
2023/02/28 07:58:22;;;;;;;9.23;5.23;;;-0.20;99.90;;;;;;4994155;28;20207;-84
2023/02/28 08:00:47;;;;;;;3.00;2.47;;;-0.10;99.90;;;;;;5008104;28;20695;-85
2023/02/28 08:03:13;;;;;;;8.53;4.23;;;-0.10;99.90;;;;;;4990882;28;20191;-85
2023/02/28 08:05:40;;;;;;;5.50;3.97;;;0.10;99.90;;;;;;5020050;28;20638;-86
2023/02/28 08:08:07;;;;;;;11.53;3.73;;;0.10;99.90;;;;;;5010990;28;20221;-86
2023/02/28 08:10:32;;;;;;;4.13;3.73;;;0.10;99.90;;;;;;5000076;28;20190;-85
2023/02/28 08:12:58;;;;;;;2.37;2.17;;;0.10;99.90;;;;;;5009713;28;20224;-85
2023/02/28 08:15:24;;;;;;;3.13;2.77;;;0.20;99.90;;;;;;4987461;28;20208;-85
2023/02/28 08:17:49;;;;;;;6.03;3.97;;;0.30;99.90;;;;;;5003443;28;20180;-86
2023/02/28 08:20:15;;;;;;;4.43;3.43;;;0.10;99.90;;;;;;5030806;28;20270;-84
2023/02/28 08:22:41;;;;;;;4.20;3.47;;;0.00;99.90;;;;;;4990793;28;20196;-85
2023/02/28 08:25:08;;;;;;;4.67;3.40;;;0.00;99.90;;;;;;5024058;28;20258;-85
2023/02/28 08:27:34;;;;;;;5.47;3.13;;;0.10;99.90;;;;;;4993946;28;20242;-84
2023/02/28 08:30:00;;;;;;;5.60;2.27;;;0.10;99.90;;;;;;5015390;28;20845;-84
2023/02/28 08:32:26;;;;;;;4.67;3.30;;;0.10;99.90;;;;;;5005998;28;20353;-85
2023/02/28 08:34:51;;;;;;;3.33;2.33;;;0.30;99.90;;;;;;4983955;28;20182;-84
2023/02/28 08:37:17;;;;;;;3.37;2.53;;;0.30;99.90;;;;;;5024868;28;20176;-85
2023/02/28 08:39:43;;;;;;;6.23;3.80;;;0.50;99.90;;;;;;5022360;28;20181;-85
2023/02/28 08:42:08;;;;;;;8.10;2.97;;;0.50;99.90;;;;;;5025201;28;20189;-85
2023/02/28 08:44:34;;;;;;;4.37;2.77;;;0.60;99.90;;;;;;4990702;28;20180;-84
2023/02/28 08:47:00;;;;;;;6.90;2.57;;;0.50;99.90;;;;;;5013104;28;20696;-83
2023/02/28 08:49:26;;;;;;;7.33;2.63;;;0.20;99.90;;;;;;5017830;28;20185;-85
2023/02/28 08:51:51;;;;;;;5.57;3.00;;;0.00;99.90;;;;;;5034583;28;20687;-86
2023/02/28 08:54:19;;;;;;;3.23;2.93;;;0.20;99.90;;;;;;5016411;28;20548;-84
2023/02/28 08:56:48;;;;;;;6.70;3.80;;;0.40;99.90;;;;;;5016604;28;20172;-84
2023/02/28 08:59:14;;;;;;;4.97;3.03;;;0.50;99.90;;;;;;5016605;28;20264;-84
2023/02/28 09:01:43;;;;;;;2.70;2.50;;;0.70;99.60;;;;;;5016163;28;20230;-85
2023/02/28 09:04:11;;;;;;;3.53;2.50;;;0.60;97.40;;;;;;5034338;28;20188;-86
2023/02/28 09:06:37;;;;;;;5.50;2.43;;;0.60;98.50;;;;;;5017145;28;20246;-86
2023/02/28 09:09:05;;;;;;;2.77;2.07;;;0.80;96.70;;;;;;5016978;28;20179;-85
2023/02/28 09:11:31;;;;;;;2.53;2.27;;;0.70;96.50;;;;;;5034990;28;20204;-84
2023/02/28 09:13:59;;;;;;;5.63;2.47;;;0.80;94.60;;;;;;5016550;28;20177;-87
2023/02/28 09:16:24;;;;;;;3.20;2.90;;;1.00;95.80;;;;;;5034643;28;20307;-85
2023/02/28 09:18:50;;;;;;;3.07;2.73;;;1.10;93.00;;;;;;5016802;28;20264;-85
2023/02/28 09:21:17;;;;;;;10.60;3.67;;;1.20;91.90;;;;;;5034009;28;20181;-84
2023/02/28 09:23:45;;;;;;;6.77;2.00;;;1.20;92.00;;;;;;5016804;28;20188;-85
2023/02/28 09:26:16;;;;;;;3.07;2.80;;;1.20;93.60;;;;;;5017228;28;20210;-85
2023/02/28 09:28:42;;;;;;;2.67;2.47;;;1.40;93.30;;;;;;5016956;28;20239;-85
2023/02/28 09:31:14;;;;;;;3.77;2.93;;;1.30;91.30;;;;;;5034509;28;20176;-86
2023/02/28 09:33:39;;;;;;;4.90;2.27;;;1.40;93.20;;;;;;5016882;28;20177;-85
2023/02/28 09:36:06;;;;;;;3.57;2.63;;;1.50;93.50;;;;;;5016358;28;20190;-86
2023/02/28 09:38:31;;;;;;;6.60;2.43;;;1.50;94.00;;;;;;5034414;28;20289;-84
2023/02/28 09:41:13;;;;;;;6.37;3.23;;;1.70;94.00;;;;;;5034747;28;20275;-85
2023/02/28 09:43:43;;;;;;;5.83;2.60;;;1.90;92.60;;;;;;5016752;28;20171;-85
2023/02/28 09:46:21;;;;;;;3.70;3.30;;;2.00;91.90;;;;;;5034060;28;20238;-84
2023/02/28 09:48:49;;;;;;;5.23;2.60;;;2.10;92.10;;;;;;5014635;28;20172;-86
2023/02/28 09:51:39;;;;;;;5.93;3.33;;;2.20;91.20;;;;;;5034036;28;20310;-85
2023/02/28 09:54:05;;;;;;;3.43;3.07;;;2.30;90.30;;;;;;5032182;28;20168;-85
2023/02/28 09:56:35;;;;;;;4.47;3.00;;;2.30;90.70;;;;;;5016454;28;20316;-85
2023/02/28 09:59:04;;;;;;;3.80;3.03;;;2.40;91.00;;;;;;5008486;28;20175;-85
2023/02/28 10:01:38;;;;;;;5.77;2.60;;;2.40;87.80;;;;;;5014312;28;20223;-86
2023/02/28 10:04:26;;;;;;;3.57;2.97;;;2.30;86.30;;;;;;5016445;28;20198;-88
2023/02/28 10:06:53;;;;;;;7.40;4.03;;;2.30;87.10;;;;;;5034202;28;20176;-85
2023/02/28 10:09:29;;;;;;;4.10;3.27;;;2.20;86.20;;;;;;5016559;28;20176;-85
2023/02/28 10:12:03;;;;;;;6.67;3.60;;;2.20;87.80;;;;;;5034232;28;20195;-84
2023/02/28 10:14:31;;;;;;;3.33;2.93;;;2.20;84.10;;;;;;5034169;28;20172;-84
2023/02/28 10:16:59;;;;;;;8.67;4.40;;;2.20;85.50;;;;;;5016346;28;20179;-84
2023/02/28 10:19:43;;;;;;;7.90;3.03;;;2.10;84.80;;;;;;5015753;28;20179;-84
2023/02/28 10:22:08;;;;;;;6.00;3.83;;;1.90;86.60;;;;;;5016034;28;20263;-85
2023/02/28 10:24:52;;;;;;;4.63;3.30;;;2.00;87.30;;;;;;5033967;28;20732;-85
2023/02/28 10:27:18;;;;;;;4.23;3.27;;;2.10;85.90;;;;;;5033733;28;20175;-85
2023/02/28 10:29:47;;;;;;;11.30;4.30;;;2.00;83.90;;;;;;5015978;28;20624;-85
2023/02/28 10:32:36;;;;;;;5.83;2.60;;;2.10;85.30;;;;;;5015844;28;20196;-85
2023/02/28 10:35:11;;;;;;;9.33;3.87;;;2.30;85.40;;;;;;5033301;28;20188;-85
2023/02/28 10:37:41;;;;;;;3.23;2.67;;;2.20;83.80;;;;;;5016056;28;20183;-85
2023/02/28 10:40:27;;;;;;;4.33;3.53;;;2.20;83.00;;;;;;5015917;28;20182;-85
2023/02/28 10:43:05;;;;;;;6.77;3.60;;;2.50;83.80;;;;;;5015869;28;20168;-86
2023/02/28 10:45:38;;;;;;;3.27;2.63;;;2.40;82.70;;;;;;5033550;28;20290;-86
2023/02/28 10:48:10;;;;;;;8.63;3.00;;;2.40;81.50;;;;;;4999904;28;20199;-86
2023/02/28 10:50:49;;;;;;;7.30;3.10;;;2.50;83.20;;;;;;5015916;28;20648;-86
2023/02/28 10:53:17;;;;;;;5.37;3.50;;;2.70;84.20;;;;;;5014220;28;20211;-86
2023/02/28 10:55:43;;;;;;;11.60;3.77;;;2.80;82.00;;;;;;5014227;28;20187;-84
2023/02/28 10:58:24;;;;;;;4.67;2.83;;;2.80;80.70;;;;;;5018552;28;20175;-85
2023/02/28 11:00:51;;;;;;;6.97;4.03;;;2.90;78.40;;;;;;5014017;28;20216;-85
2023/02/28 11:03:29;;;;;;;4.87;3.40;;;2.90;80.20;;;;;;5031907;28;20199;-85
2023/02/28 11:05:55;;;;;;;10.97;5.60;;;2.80;79.70;;;;;;5011786;28;20627;-85
2023/02/28 11:08:21;;;;;;;7.27;3.47;;;2.40;78.20;;;;;;5014280;28;20275;-87
2023/02/28 11:10:55;;;;;;;10.97;4.00;;;2.40;80.50;;;;;;5014411;28;20647;-85
2023/02/28 11:13:27;;;;;;;6.13;4.13;;;2.60;81.40;;;;;;5012012;28;20218;-85
2023/02/28 11:15:57;;;;;;;3.37;2.57;;;2.90;80.90;;;;;;4998774;28;20226;-85
2023/02/28 11:18:50;;;;;;;3.37;3.00;;;3.20;82.00;;;;;;5040907;28;20231;-85
2023/02/28 11:21:20;;;;;;;7.37;3.27;;;3.30;80.90;;;;;;5041590;28;20180;-86
2023/02/28 11:23:50;;;;;;;8.93;4.60;;;3.30;79.70;;;;;;5025055;28;20171;-84
2023/02/28 11:26:35;;;;;;;9.40;4.13;;;3.30;77.10;;;;;;5049343;28;20179;-85
2023/02/28 11:29:21;;;;;;;3.57;3.00;;;3.00;78.60;;;;;;5026177;28;20616;-86
2023/02/28 11:32:22;;;;;;;7.50;3.37;;;2.90;76.10;;;;;;5048831;28;20211;-85
2023/02/28 11:35:00;;;;;;;4.07;3.23;;;2.80;77.00;;;;;;5025696;28;20175;-87
2023/02/28 11:37:28;;;;;;;7.00;4.00;;;3.00;81.40;;;;;;5022868;28;20183;-85
2023/02/28 11:39:54;;;;;;;8.83;4.90;;;3.20;79.80;;;;;;5043099;28;20288;-88
2023/02/28 11:42:47;;;;;;;6.70;3.83;;;3.30;77.10;;;;;;5041028;28;20183;-86
2023/02/28 11:45:26;;;;;;;10.63;4.17;;;3.30;79.60;;;;;;5039328;28;20176;-85
2023/02/28 11:48:01;;;;;;;7.40;3.33;;;3.40;77.70;;;;;;5039361;28;20168;-86
2023/02/28 11:51:05;;;;;;;9.37;4.73;;;3.20;76.30;;;;;;5038272;28;20623;-85
2023/02/28 11:53:56;;;;;;;11.50;3.97;;;3.30;78.00;;;;;;5040702;28;20236;-85
2023/02/28 11:56:39;;;;;;;5.90;3.80;;;3.50;77.60;;;;;;5023716;28;20203;-86
2023/02/28 11:59:16;;;;;;;7.37;3.90;;;3.70;77.20;;;;;;5045524;28;20167;-86
2023/02/28 12:02:06;;;;;;;4.93;3.80;;;3.70;74.70;;;;;;5033859;28;20231;-89
2023/02/28 12:04:58;;;;;;;6.83;4.20;;;3.50;75.40;;;;;;5030635;28;20263;-87
2023/02/28 12:07:39;;;;;;;9.53;4.07;;;3.60;74.30;;;;;;5031764;28;20655;-87
2023/02/28 12:10:11;;;;;;;12.00;5.73;;;3.90;76.30;;;;;;5030956;28;20177;-85
2023/02/28 12:12:49;;;;;;;15.27;5.43;;;3.30;75.00;;;;;;5011355;28;20677;-86
2023/02/28 12:15:26;;;;;;;6.37;3.53;;;2.90;76.30;;;;;;5013397;28;20252;-85
2023/02/28 12:18:00;;;;;;;8.40;4.73;;;3.00;79.40;;;;;;5028679;28;20218;-85
2023/02/28 12:20:41;;;;;;;8.20;3.57;;;3.20;77.20;;;;;;5013302;28;20218;-85
2023/02/28 12:23:40;;;;;;;5.50;2.93;;;3.30;76.20;;;;;;5030505;28;20176;-87
2023/02/28 12:26:24;;;;;;;4.37;3.33;;;3.40;75.20;;;;;;5016460;28;20715;-85
2023/02/28 12:28:57;;;;;;;7.40;4.87;;;3.80;77.70;;;;;;5017173;28;20180;-85
2023/02/28 12:31:37;;;;;;;7.20;3.87;;;3.60;74.30;;;;;;5034849;28;20166;-87
2023/02/28 12:34:31;;;;;;;5.87;3.80;;;3.60;75.80;;;;;;5033617;28;20168;-85
2023/02/28 12:37:00;;;;;;;5.83;3.73;;;3.90;74.90;;;;;;5026024;28;20220;-86
2023/02/28 12:39:32;;;;;;;6.47;4.43;;;4.10;73.90;;;;;;5034278;28;20587;-84
2023/02/28 12:42:10;;;;;;;7.33;3.73;;;4.30;73.80;;;;;;5032365;28;20188;-84
2023/02/28 12:44:49;;;;;;;8.00;3.70;;;4.40;72.70;;;;;;5031921;28;20173;-85
2023/02/28 12:47:16;;;;;;;6.03;3.97;;;4.50;73.60;;;;;;5016475;28;20180;-84
2023/02/28 12:49:48;;;;;;;9.03;4.67;;;4.80;69.70;;;;;;5034111;28;20264;-85
2023/02/28 12:52:19;;;;;;;8.03;4.43;;;4.80;70.10;;;;;;5042546;28;20266;-87
2023/02/28 12:54:57;;;;;;;7.57;4.20;;;5.00;69.90;;;;;;5039745;28;20633;-84
2023/02/28 12:57:38;;;;;;;11.57;3.87;;;4.40;69.40;;;;;;5017167;28;20177;-85
2023/02/28 13:00:16;;;;;;;9.00;3.97;;;6.20;72.40;;;;;;5027974;28;20187;-91